createdAt,value
2023-01-27T00:00:50.242Z,3.20
2023-01-27T00:03:18.227Z,3.20
2023-01-27T00:05:46.872Z,3.10
2023-01-27T00:08:14.612Z,3.20
2023-01-27T00:10:41.848Z,3.20
2023-01-27T00:13:29.419Z,3.10
2023-01-27T00:15:56.537Z,3.10
2023-01-27T00:18:23.984Z,3.20
2023-01-27T00:21:11.063Z,3.20
2023-01-27T00:23:57.131Z,3.20
2023-01-27T00:26:24.191Z,3.20
2023-01-27T00:28:51.214Z,3.20
2023-01-27T00:31:37.240Z,3.20
2023-01-27T00:34:11.219Z,3.20
2023-01-27T00:36:42.139Z,3.00
2023-01-27T00:39:11.806Z,3.00
2023-01-27T00:41:39.924Z,3.10
2023-01-27T00:44:12.654Z,3.10
2023-01-27T00:46:40.334Z,3.20
2023-01-27T00:49:07.970Z,3.20
2023-01-27T00:51:36.386Z,3.20
2023-01-27T00:54:05.556Z,3.20
2023-01-27T00:56:32.954Z,3.20
2023-01-27T00:59:00.105Z,3.20
2023-01-27T01:01:27.934Z,3.20
2023-01-27T01:03:54.993Z,3.20
2023-01-27T01:06:22.373Z,3.10
2023-01-27T01:08:51.201Z,3.10
2023-01-27T01:11:23.595Z,3.10
2023-01-27T01:13:50.525Z,3.00
2023-01-27T01:16:20.649Z,3.00
2023-01-27T01:18:48.035Z,3.10
2023-01-27T01:21:16.069Z,3.00
2023-01-27T01:23:45.452Z,3.00
2023-01-27T01:26:14.624Z,3.10
2023-01-27T01:28:44.393Z,3.00
2023-01-27T01:31:13.723Z,3.10
2023-01-27T01:33:40.863Z,3.10
2023-01-27T01:36:10.638Z,3.00
2023-01-27T01:38:37.968Z,3.00
2023-01-27T01:41:06.264Z,3.00
2023-01-27T01:43:33.794Z,3.00
2023-01-27T01:46:03.357Z,3.00
2023-01-27T01:48:34.985Z,3.10
2023-01-27T01:51:08.468Z,3.20
2023-01-27T01:53:40.819Z,3.30
2023-01-27T01:56:15.247Z,3.40
2023-01-27T02:01:19.255Z,3.40
2023-01-27T02:03:51.237Z,3.20
2023-01-27T02:06:18.434Z,3.20
2023-01-27T02:08:47.917Z,3.20
2023-01-27T02:11:14.989Z,3.10
2023-01-27T02:13:43.303Z,3.10
2023-01-27T02:16:11.666Z,3.20
2023-01-27T02:18:41.934Z,3.20
2023-01-27T02:21:09.550Z,3.20
2023-01-27T02:23:57.264Z,3.20
2023-01-27T02:26:30.333Z,3.30
2023-01-27T02:29:00.190Z,3.30
2023-01-27T02:31:27.821Z,3.20
2023-01-27T02:34:00.125Z,3.30
2023-01-27T02:36:30.974Z,3.30
2023-01-27T02:38:59.665Z,3.30
2023-01-27T02:41:31.804Z,3.30
2023-01-27T02:43:59.599Z,3.40
2023-01-27T02:46:27.190Z,3.40
2023-01-27T02:48:54.389Z,3.40
2023-01-27T02:51:21.327Z,3.40
2023-01-27T02:53:48.384Z,3.40
2023-01-27T02:56:15.465Z,3.40
2023-01-27T02:58:43.984Z,3.50
2023-01-27T03:01:11.128Z,3.50
2023-01-27T03:03:44.203Z,3.40
2023-01-27T03:06:11.557Z,3.30
2023-01-27T03:08:38.527Z,3.10
2023-01-27T03:11:06.295Z,3.10
2023-01-27T03:13:33.548Z,3.10
2023-01-27T03:16:20.690Z,3.20
2023-01-27T03:18:49.566Z,3.10
2023-01-27T03:21:18.419Z,3.20
2023-01-27T03:23:46.114Z,3.20
2023-01-27T03:26:13.079Z,3.20
2023-01-27T03:28:40.081Z,3.20
2023-01-27T03:31:19.603Z,3.20
2023-01-27T03:33:47.841Z,3.20
2023-01-27T03:36:34.995Z,3.20
2023-01-27T03:39:20.806Z,3.40
2023-01-27T03:42:06.640Z,3.50
2023-01-27T03:44:52.679Z,3.40
2023-01-27T03:47:21.202Z,3.50
2023-01-27T03:49:48.089Z,3.50
2023-01-27T03:52:15.053Z,3.60
2023-01-27T03:54:42.188Z,3.50
2023-01-27T03:57:09.213Z,3.50
2023-01-27T03:59:36.376Z,3.50
2023-01-27T04:02:21.966Z,3.50
2023-01-27T04:05:09.169Z,3.50
2023-01-27T04:07:36.691Z,3.50
2023-01-27T04:10:04.849Z,3.50
2023-01-27T04:12:32.514Z,3.50
2023-01-27T04:14:59.564Z,3.60
2023-01-27T04:17:26.604Z,3.70
2023-01-27T04:19:55.071Z,3.70
2023-01-27T04:22:21.997Z,3.70
2023-01-27T04:24:50.239Z,3.80
2023-01-27T04:27:18.863Z,3.80
2023-01-27T04:29:45.774Z,3.90
2023-01-27T04:32:13.956Z,3.90
2023-01-27T04:34:41.565Z,3.90
2023-01-27T04:37:10.748Z,3.80
2023-01-27T04:39:38.056Z,3.80
2023-01-27T04:42:05.197Z,3.90
2023-01-27T04:44:32.345Z,3.90
2023-01-27T04:46:59.342Z,4.00
2023-01-27T04:49:29.529Z,4.00
2023-01-27T04:51:56.616Z,4.10
2023-01-27T04:54:24.944Z,3.90
2023-01-27T04:56:57.695Z,4.00
2023-01-27T04:59:25.096Z,3.90
2023-01-27T05:01:52.355Z,4.00
2023-01-27T05:04:19.561Z,4.00
2023-01-27T05:06:46.502Z,4.00
2023-01-27T05:09:13.743Z,3.90
2023-01-27T05:11:42.058Z,3.90
2023-01-27T05:14:09.131Z,3.90
2023-01-27T05:16:38.629Z,3.90
2023-01-27T05:19:05.871Z,3.90
2023-01-27T05:21:32.807Z,3.90
2023-01-27T05:23:59.940Z,4.00
2023-01-27T05:26:28.393Z,4.00
2023-01-27T05:28:58.927Z,4.00
2023-01-27T05:31:28.357Z,4.00
2023-01-27T05:34:00.290Z,4.00
2023-01-27T05:36:28.119Z,4.00
2023-01-27T05:38:56.024Z,4.00
2023-01-27T05:41:25.800Z,4.00
2023-01-27T05:43:55.384Z,4.10
2023-01-27T05:46:26.046Z,4.10
2023-01-27T05:48:55.738Z,4.10
2023-01-27T05:51:25.539Z,4.10
2023-01-27T05:53:54.489Z,4.10
2023-01-27T05:56:22.338Z,4.20
2023-01-27T05:58:51.750Z,4.10
2023-01-27T06:01:21.943Z,4.10
2023-01-27T06:03:50.580Z,4.10
2023-01-27T06:06:20.236Z,4.20
2023-01-27T06:08:48.183Z,4.20
2023-01-27T06:11:17.299Z,4.30
2023-01-27T06:13:44.267Z,4.20
2023-01-27T06:16:14.916Z,4.20
2023-01-27T06:18:42.384Z,4.20
2023-01-27T06:21:12.452Z,4.20
2023-01-27T06:23:40.043Z,4.20
2023-01-27T06:26:10.421Z,4.20
2023-01-27T06:28:37.613Z,4.20
2023-01-27T06:31:07.124Z,4.20
2023-01-27T06:33:34.864Z,4.20
2023-01-27T06:36:03.683Z,4.10
2023-01-27T06:38:32.270Z,4.10
2023-01-27T06:41:00.698Z,4.20
2023-01-27T06:43:28.283Z,4.20
2023-01-27T06:45:57.666Z,4.20
2023-01-27T06:48:25.344Z,4.30
2023-01-27T06:50:53.286Z,4.30
2023-01-27T06:53:23.461Z,4.20
2023-01-27T06:55:56.217Z,4.20
2023-01-27T06:58:23.302Z,4.30
2023-01-27T07:00:50.487Z,4.30
2023-01-27T07:03:17.579Z,4.40
2023-01-27T07:05:47.055Z,4.40
2023-01-27T07:08:14.128Z,4.40
2023-01-27T07:10:43.413Z,4.40
2023-01-27T07:13:13.986Z,4.40
2023-01-27T07:15:42.008Z,4.30
2023-01-27T07:18:11.049Z,4.30
2023-01-27T07:20:38.186Z,4.20
2023-01-27T07:23:06.076Z,4.30
2023-01-27T07:25:35.120Z,4.30
2023-01-27T07:28:03.690Z,4.30
2023-01-27T07:30:34.117Z,4.40
2023-01-27T07:33:04.758Z,4.30
2023-01-27T07:35:31.957Z,4.40
2023-01-27T07:37:59.343Z,4.40
2023-01-27T07:40:26.705Z,4.40
2023-01-27T07:42:53.855Z,4.40
2023-01-27T07:45:20.961Z,4.40
2023-01-27T07:47:49.641Z,4.40
2023-01-27T07:50:17.222Z,4.40
2023-01-27T07:52:44.307Z,4.40
2023-01-27T07:55:11.602Z,4.40
2023-01-27T07:57:38.900Z,4.50
2023-01-27T08:00:07.875Z,4.60
2023-01-27T08:02:35.444Z,4.50
2023-01-27T08:05:04.516Z,4.50
2023-01-27T08:07:31.665Z,4.50
2023-01-27T08:09:58.768Z,4.50
2023-01-27T08:12:25.916Z,4.50
2023-01-27T08:14:52.884Z,4.50
2023-01-27T08:17:20.148Z,4.40
2023-01-27T08:19:48.472Z,4.50
2023-01-27T08:22:20.982Z,4.50
2023-01-27T08:24:48.636Z,4.50
2023-01-27T08:27:16.080Z,4.60
2023-01-27T08:29:43.341Z,4.60
2023-01-27T08:32:11.531Z,4.70
2023-01-27T08:34:40.629Z,4.70
2023-01-27T08:37:08.094Z,4.60
2023-01-27T08:39:36.824Z,4.70
2023-01-27T08:42:04.038Z,4.70
2023-01-27T08:44:31.348Z,4.70
2023-01-27T08:46:58.435Z,4.70
2023-01-27T08:49:25.724Z,4.70
2023-01-27T08:51:52.736Z,4.80
2023-01-27T08:54:20.036Z,4.70
2023-01-27T08:56:48.631Z,4.80
2023-01-27T08:59:15.889Z,4.80
2023-01-27T09:01:43.186Z,4.70
2023-01-27T09:04:10.448Z,4.70
2023-01-27T09:06:37.576Z,4.80
2023-01-27T09:09:12.294Z,4.80
2023-01-27T09:11:42.376Z,4.90
2023-01-27T09:14:11.588Z,5.00
2023-01-27T09:16:38.805Z,5.00
2023-01-27T09:19:05.967Z,5.00
2023-01-27T09:21:33.362Z,4.90
2023-01-27T09:24:00.464Z,5.00
2023-01-27T09:26:27.625Z,5.10
2023-01-27T09:28:54.724Z,5.10
2023-01-27T09:31:23.444Z,5.10
2023-01-27T09:33:50.479Z,5.10
2023-01-27T09:36:21.440Z,5.00
2023-01-27T09:38:55.512Z,5.00
2023-01-27T09:41:59.014Z,5.00
2023-01-27T09:45:00.810Z,5.00
2023-01-27T09:47:48.161Z,5.00
2023-01-27T09:50:43.743Z,5.10
2023-01-27T09:54:09.742Z,5.00
2023-01-27T09:56:53.317Z,5.10
2023-01-27T09:59:42.264Z,5.00
2023-01-27T10:02:30.867Z,4.90
2023-01-27T10:05:32.392Z,5.00
2023-01-27T10:08:20.093Z,5.00
2023-01-27T10:11:04.343Z,5.00
2023-01-27T10:13:43.549Z,5.00
2023-01-27T10:16:36.444Z,5.00
2023-01-27T10:19:42.052Z,5.10
2023-01-27T10:22:20.479Z,5.10
2023-01-27T10:25:02.719Z,5.00
2023-01-27T10:27:37.182Z,5.00
2023-01-27T10:30:12.450Z,5.00
2023-01-27T10:32:45.783Z,5.10
2023-01-27T10:35:20.922Z,5.20
2023-01-27T10:38:04.455Z,5.10
2023-01-27T10:40:41.927Z,5.20
2023-01-27T10:43:17.154Z,5.30
2023-01-27T10:45:55.317Z,5.20
2023-01-27T10:48:37.408Z,5.20
2023-01-27T10:51:11.561Z,5.30
2023-01-27T10:53:49.908Z,5.30
2023-01-27T10:56:28.694Z,5.30
2023-01-27T10:59:03.674Z,5.30
2023-01-27T11:01:37.204Z,5.40
2023-01-27T11:04:11.021Z,5.30
2023-01-27T11:06:42.214Z,5.30
2023-01-27T11:09:24.344Z,5.30
2023-01-27T11:11:53.092Z,5.30
2023-01-27T11:14:27.277Z,5.40
2023-01-27T11:17:02.165Z,5.40
2023-01-27T11:19:46.486Z,5.30
2023-01-27T11:22:21.608Z,5.30
2023-01-27T11:24:59.337Z,5.30
2023-01-27T11:27:39.759Z,5.40
2023-01-27T11:30:15.761Z,5.30
2023-01-27T11:32:54.721Z,5.40
2023-01-27T11:35:22.532Z,5.50
2023-01-27T11:37:58.289Z,5.40
2023-01-27T11:40:34.185Z,5.50
2023-01-27T11:43:02.420Z,5.40
2023-01-27T11:45:35.667Z,5.50
2023-01-27T11:48:07.437Z,5.50
2023-01-27T11:50:36.756Z,5.50
2023-01-27T11:53:18.383Z,5.60
2023-01-27T11:55:51.121Z,5.60
2023-01-27T11:58:25.504Z,5.60
2023-01-27T12:00:56.966Z,5.60
2023-01-27T12:03:34.537Z,5.60
2023-01-27T12:06:11.574Z,5.70
2023-01-27T12:08:42.583Z,5.80
2023-01-27T12:11:25.349Z,5.70
2023-01-27T12:13:56.840Z,5.70
2023-01-27T12:16:32.028Z,5.70
2023-01-27T13:25:46.799Z,5.90
2023-01-27T13:28:21.788Z,5.80
2023-01-27T13:30:54.554Z,5.80
2023-01-27T13:33:34.828Z,5.70
2023-01-27T13:36:08.448Z,5.70
2023-01-27T13:38:47.523Z,5.70
2023-01-27T13:41:22.325Z,5.80
2023-01-27T13:44:00.497Z,5.80
2023-01-27T13:46:31.853Z,5.80
2023-01-27T13:49:04.049Z,5.90
2023-01-27T13:51:33.453Z,5.90
2023-01-27T13:54:03.075Z,5.90
2023-01-27T13:56:49.535Z,5.80
2023-01-27T13:59:41.371Z,5.90
2023-01-27T14:02:52.930Z,5.90
2023-01-27T14:05:36.956Z,5.90
2023-01-27T14:08:28.340Z,5.80
2023-01-27T14:11:10.331Z,5.90
2023-01-27T14:13:56.305Z,5.90
2023-01-27T14:16:35.460Z,5.80
2023-01-27T14:19:16.720Z,5.80
2023-01-27T14:21:52.955Z,5.80
2023-01-27T14:24:33.518Z,5.80
2023-01-27T14:27:08.428Z,5.90
2023-01-27T14:29:48.450Z,5.80
2023-01-27T14:32:26.691Z,5.80
2023-01-27T14:35:10.068Z,5.90
2023-01-27T14:37:46.037Z,5.90
2023-01-27T14:40:18.530Z,6.00
2023-01-27T14:43:03.660Z,5.90
2023-01-27T14:45:36.287Z,5.90
2023-01-27T14:48:18.461Z,5.90
2023-01-27T14:50:53.835Z,5.90
2023-01-27T14:53:41.915Z,6.00
2023-01-27T14:56:17.804Z,5.90
2023-01-27T14:58:57.528Z,5.90
2023-01-27T15:01:36.459Z,5.90
2023-01-27T15:04:37.349Z,5.80
2023-01-27T15:07:16.329Z,5.90
2023-01-27T15:10:21.669Z,5.80
2023-01-27T15:13:31.593Z,5.80
2023-01-27T15:16:24.014Z,5.80
2023-01-27T15:19:40.275Z,5.90
2023-01-27T15:22:46.525Z,5.90
2023-01-27T15:25:33.382Z,5.90
2023-01-27T15:28:02.796Z,5.90
2023-01-27T15:30:33.269Z,5.80
2023-01-27T15:33:00.773Z,5.90
2023-01-27T15:35:41.566Z,5.90
2023-01-27T15:38:35.163Z,5.80
2023-01-27T15:41:10.988Z,5.90
2023-01-27T15:43:44.097Z,5.90
2023-01-27T15:46:32.633Z,5.90
2023-01-27T15:49:01.670Z,5.90
2023-01-27T15:51:35.760Z,5.90
2023-01-27T15:54:04.195Z,5.90
2023-01-27T15:56:48.637Z,5.80
2023-01-27T15:59:22.744Z,5.90
2023-01-27T16:01:59.987Z,5.90
2023-01-27T16:04:31.619Z,5.90
2023-01-27T16:07:03.213Z,5.90
2023-01-27T16:09:40.010Z,5.90
2023-01-27T16:12:43.664Z,5.80
2023-01-27T16:15:30.860Z,5.70
2023-01-27T16:18:24.836Z,5.80
2023-01-27T16:20:59.932Z,5.80
2023-01-27T16:23:45.057Z,5.80
2023-01-27T16:26:30.657Z,5.80
2023-01-27T16:29:15.319Z,5.80
2023-01-27T16:31:44.082Z,5.80
2023-01-27T16:34:23.258Z,5.90
2023-01-27T16:37:17.502Z,5.90
2023-01-27T16:39:53.195Z,5.90
2023-01-27T16:42:29.944Z,5.80
2023-01-27T16:45:02.433Z,5.90
2023-01-27T16:47:36.623Z,5.80
2023-01-27T16:50:04.295Z,5.80
2023-01-27T16:52:42.073Z,5.70
2023-01-27T16:55:22.039Z,5.70
2023-01-27T16:57:49.663Z,5.70
2023-01-27T17:00:22.915Z,5.80
2023-01-27T17:02:51.455Z,5.70
2023-01-27T17:05:19.940Z,5.70
2023-01-27T17:08:04.184Z,5.70
2023-01-27T17:10:35.109Z,5.70
2023-01-27T17:13:02.535Z,5.70
2023-01-27T17:15:35.534Z,5.70
2023-01-27T17:18:08.747Z,5.70
2023-01-27T17:20:40.488Z,5.80
2023-01-27T17:23:07.835Z,5.70
2023-01-27T17:25:38.815Z,5.70
2023-01-27T17:28:12.014Z,5.60
2023-01-27T17:30:42.386Z,5.70
2023-01-27T17:33:17.913Z,5.70
2023-01-27T17:35:49.949Z,5.60
2023-01-27T17:38:20.225Z,5.60
2023-01-27T17:40:50.721Z,5.60
2023-01-27T17:43:28.331Z,5.60
2023-01-27T17:46:20.419Z,5.60
2023-01-27T17:48:52.839Z,5.60
2023-01-27T17:51:22.813Z,5.70
2023-01-27T17:53:51.187Z,5.70
2023-01-27T17:56:23.896Z,5.70
2023-01-27T17:58:55.927Z,5.70
2023-01-27T18:01:23.177Z,5.70
2023-01-27T18:03:53.883Z,5.70
2023-01-27T18:06:26.236Z,5.70
2023-01-27T18:08:56.069Z,5.70
2023-01-27T18:11:31.260Z,5.70
2023-01-27T18:14:06.543Z,5.80
2023-01-27T18:16:33.787Z,5.80
2023-01-27T18:19:19.174Z,5.70
2023-01-27T18:21:46.700Z,5.70
2023-01-27T18:24:21.251Z,5.70
2023-01-27T18:26:50.518Z,5.70
2023-01-27T18:29:24.884Z,5.80
2023-01-27T18:31:55.355Z,5.70
2023-01-27T18:34:28.575Z,5.70
2023-01-27T18:36:58.687Z,5.70
2023-01-27T18:39:33.667Z,5.70
2023-01-27T18:42:03.204Z,5.80
2023-01-27T18:44:37.003Z,5.80
2023-01-27T18:47:30.142Z,5.80
2023-01-27T18:50:02.041Z,5.70
2023-01-27T18:52:29.840Z,5.70
2023-01-27T18:55:06.448Z,5.70
2023-01-27T18:57:34.771Z,5.70
2023-01-27T19:00:01.955Z,5.70
2023-01-27T19:02:28.913Z,5.70
2023-01-27T19:04:56.007Z,5.70
2023-01-27T19:07:23.010Z,5.70
2023-01-27T19:09:50.003Z,5.60
2023-01-27T19:12:17.101Z,5.70
2023-01-27T19:14:47.884Z,5.60
2023-01-27T19:17:22.049Z,5.70
2023-01-27T19:19:49.763Z,5.60
2023-01-27T19:22:19.522Z,5.60
2023-01-27T19:24:46.815Z,5.60
2023-01-27T19:27:15.871Z,5.60
2023-01-27T19:29:42.848Z,5.60
2023-01-27T19:32:15.376Z,5.60
2023-01-27T19:34:42.355Z,5.60
2023-01-27T19:37:18.227Z,5.50
2023-01-27T19:39:45.599Z,5.40
2023-01-27T19:42:15.352Z,5.40
2023-01-27T19:44:42.615Z,5.50
2023-01-27T19:47:13.652Z,5.50
2023-01-27T19:49:40.877Z,5.50
2023-01-27T19:52:07.986Z,5.40
2023-01-27T19:54:35.003Z,5.50
2023-01-27T19:57:02.382Z,5.50
2023-01-27T19:59:29.377Z,5.50
2023-01-27T20:01:56.866Z,5.40
2023-01-27T20:04:26.496Z,5.50
2023-01-27T20:06:53.560Z,5.50
2023-01-27T20:09:20.638Z,5.40
2023-01-27T20:11:47.614Z,5.40
2023-01-27T20:14:19.026Z,5.40
2023-01-27T20:16:47.069Z,5.30
2023-01-27T20:19:15.332Z,5.40
2023-01-27T20:21:44.902Z,5.40
2023-01-27T20:24:14.609Z,5.50
2023-01-27T20:26:41.656Z,5.50
2023-01-27T20:29:08.750Z,5.50
2023-01-27T20:31:37.698Z,5.50
2023-01-27T20:34:04.939Z,5.30
2023-01-27T20:36:31.922Z,5.30
2023-01-27T20:39:00.329Z,5.40
2023-01-27T20:41:27.456Z,5.50
2023-01-27T20:44:00.270Z,5.50
2023-01-27T20:46:28.696Z,5.40
2023-01-27T20:48:56.218Z,5.40
2023-01-27T20:51:23.183Z,5.40
2023-01-27T20:53:50.107Z,5.40
2023-01-27T20:56:21.224Z,5.50
2023-01-27T20:58:48.919Z,5.50
2023-01-27T21:01:18.224Z,5.50
2023-01-27T21:03:46.007Z,5.50
2023-01-27T21:06:15.801Z,5.50
2023-01-27T21:08:43.544Z,5.50
2023-01-27T21:11:13.116Z,5.50
2023-01-27T21:13:41.560Z,5.50
2023-01-27T21:16:08.934Z,5.50
2023-01-27T21:18:36.354Z,5.50
2023-01-27T21:21:04.597Z,5.50
2023-01-27T21:23:33.636Z,5.40
2023-01-27T21:26:04.462Z,5.40
2023-01-27T21:28:33.591Z,5.40
2023-01-27T21:31:07.132Z,5.40
2023-01-27T21:33:36.018Z,5.40
2023-01-27T21:36:03.520Z,5.30
2023-01-27T21:38:31.319Z,5.30
2023-01-27T21:41:04.930Z,5.30
2023-01-27T21:43:50.383Z,5.30
2023-01-27T21:46:19.066Z,5.20
2023-01-27T21:48:46.187Z,5.20
2023-01-27T21:51:13.894Z,5.20
2023-01-27T21:53:41.107Z,5.20
2023-01-27T21:56:10.219Z,5.20
2023-01-27T21:58:37.186Z,5.10
2023-01-27T22:01:07.882Z,5.10
2023-01-27T22:03:37.482Z,5.20
2023-01-27T22:06:05.967Z,5.20
2023-01-27T22:08:33.414Z,5.20
2023-01-27T22:11:04.170Z,5.10
2023-01-27T22:13:31.237Z,5.10
2023-01-27T22:15:58.329Z,5.20
2023-01-27T22:18:25.563Z,5.10
2023-01-27T22:20:54.117Z,5.20
2023-01-27T22:23:21.368Z,5.20
2023-01-27T22:25:49.494Z,5.10
2023-01-27T22:28:17.117Z,5.10
2023-01-27T22:30:44.201Z,5.10
2023-01-27T22:33:12.264Z,5.20
2023-01-27T22:35:39.625Z,5.20
2023-01-27T22:38:09.279Z,5.20
2023-01-27T22:40:36.219Z,5.20
2023-01-27T22:43:10.118Z,5.20
2023-01-27T22:45:39.046Z,5.10
2023-01-27T22:48:06.266Z,5.20
2023-01-27T22:50:33.225Z,5.20
2023-01-27T22:53:00.330Z,5.20
2023-01-27T22:55:28.723Z,5.20
2023-01-27T22:57:55.594Z,5.20
2023-01-27T23:00:22.827Z,5.20
2023-01-27T23:02:49.838Z,5.20
2023-01-27T23:05:17.367Z,5.10
2023-01-27T23:07:46.528Z,5.10
2023-01-27T23:10:13.588Z,5.10
2023-01-27T23:12:41.925Z,5.10
2023-01-27T23:15:09.933Z,5.10
2023-01-27T23:17:37.038Z,5.20
2023-01-27T23:20:05.132Z,5.20
2023-01-27T23:22:32.824Z,5.10
2023-01-27T23:24:59.959Z,5.10
2023-01-27T23:27:28.527Z,5.10
2023-01-27T23:29:57.070Z,5.10
2023-01-27T23:32:24.050Z,5.10
2023-01-27T23:35:02.250Z,5.20
2023-01-27T23:37:29.151Z,5.20
2023-01-27T23:39:56.214Z,5.20
2023-01-27T23:42:23.505Z,5.20
2023-01-27T23:44:50.555Z,5.10
2023-01-27T23:47:19.011Z,5.10
2023-01-27T23:49:46.167Z,5.10
2023-01-27T23:52:13.278Z,5.20
2023-01-27T23:54:40.341Z,5.10
2023-01-27T23:57:07.293Z,5.10
2023-01-27T23:59:35.503Z,5.20
